createdAt,value
2023-08-24T00:00:13.154Z,83.80
2023-08-24T00:01:13.363Z,83.70
2023-08-24T00:02:13.275Z,83.60
2023-08-24T00:03:13.405Z,83.40
2023-08-24T00:04:13.766Z,83.20
2023-08-24T00:05:13.683Z,83.00
2023-08-24T00:06:13.636Z,82.80
2023-08-24T00:07:13.830Z,82.70
2023-08-24T00:08:13.797Z,82.70
2023-08-24T00:09:13.741Z,82.70
2023-08-24T00:10:13.841Z,82.90
2023-08-24T00:11:13.735Z,82.80
2023-08-24T00:12:13.487Z,82.80
2023-08-24T00:13:13.701Z,82.80
2023-08-24T00:14:13.502Z,82.80
2023-08-24T00:15:13.707Z,82.70
2023-08-24T00:16:14.010Z,82.60
2023-08-24T00:17:13.105Z,82.60
2023-08-24T00:18:13.224Z,82.60
2023-08-24T00:19:13.356Z,82.60
2023-08-24T00:20:13.213Z,82.50
2023-08-24T00:21:18.368Z,82.50
2023-08-24T00:22:13.197Z,82.80
2023-08-24T00:23:13.111Z,82.80
2023-08-24T00:24:17.966Z,82.80
2023-08-24T00:25:28.090Z,82.90
2023-08-24T00:26:13.225Z,83.00
2023-08-24T00:27:13.128Z,82.90
2023-08-24T00:28:13.092Z,83.00
2023-08-24T00:29:13.037Z,83.10
2023-08-24T00:30:13.165Z,83.20
2023-08-24T00:31:13.352Z,83.40
2023-08-24T00:32:13.239Z,83.70
2023-08-24T00:33:13.164Z,83.70
2023-08-24T00:34:13.094Z,83.70
2023-08-24T00:35:12.950Z,83.80
2023-08-24T00:36:13.048Z,83.80
2023-08-24T00:37:13.156Z,84.00
2023-08-24T00:38:13.044Z,84.20
2023-08-24T00:39:12.820Z,84.50
2023-08-24T00:40:13.625Z,84.60
2023-08-24T00:41:13.536Z,84.80
2023-08-24T00:42:13.634Z,84.90
2023-08-24T00:43:14.155Z,85.00
2023-08-24T00:44:13.157Z,85.10
2023-08-24T00:45:13.204Z,85.10
2023-08-24T00:46:13.134Z,85.00
2023-08-24T00:47:13.399Z,85.00
2023-08-24T00:48:13.490Z,85.00
2023-08-24T00:49:13.413Z,84.90
2023-08-24T00:50:13.646Z,84.70
2023-08-24T00:51:13.683Z,84.50
2023-08-24T00:52:13.584Z,84.40
2023-08-24T00:53:13.621Z,84.50
2023-08-24T00:54:13.714Z,84.40
2023-08-24T00:55:13.671Z,84.50
2023-08-24T00:56:13.704Z,84.50
2023-08-24T00:57:13.474Z,84.40
2023-08-24T00:58:13.576Z,84.40
2023-08-24T00:59:15.046Z,84.70
2023-08-24T01:00:12.969Z,85.00
2023-08-24T01:01:12.821Z,85.30
2023-08-24T01:02:13.685Z,85.40
2023-08-24T01:03:13.616Z,85.50
2023-08-24T01:04:13.854Z,85.70
2023-08-24T01:05:14.021Z,85.90
2023-08-24T01:06:12.976Z,86.00
2023-08-24T01:07:12.917Z,86.00
2023-08-24T01:08:12.558Z,86.30
2023-08-24T01:09:13.797Z,86.30
2023-08-24T01:10:13.829Z,86.40
2023-08-24T01:11:14.057Z,86.40
2023-08-24T01:12:12.787Z,86.50
2023-08-24T01:13:13.795Z,86.70
2023-08-24T01:14:13.634Z,87.10
2023-08-24T01:15:13.617Z,87.30
2023-08-24T01:16:13.528Z,87.30
2023-08-24T01:17:13.348Z,87.10
2023-08-24T01:18:13.083Z,87.00
2023-08-24T01:19:13.087Z,86.70
2023-08-24T01:20:13.100Z,86.50
2023-08-24T01:21:13.094Z,86.30
2023-08-24T01:22:12.931Z,86.30
2023-08-24T01:23:18.080Z,86.50
2023-08-24T01:24:12.982Z,86.50
2023-08-24T01:25:13.043Z,86.40
2023-08-24T01:27:13.380Z,86.30
2023-08-24T01:28:18.461Z,86.30
2023-08-24T01:29:13.610Z,86.20
2023-08-24T01:30:13.624Z,86.20
2023-08-24T01:31:13.564Z,86.00
2023-08-24T01:33:13.447Z,85.70
2023-08-24T01:34:18.526Z,85.60
2023-08-24T01:35:13.830Z,85.90
2023-08-24T01:36:13.982Z,86.00
2023-08-24T01:37:13.013Z,85.70
2023-08-24T01:38:13.018Z,85.50
2023-08-24T01:40:13.535Z,85.40
2023-08-24T01:41:13.374Z,85.50
2023-08-24T01:42:13.201Z,85.70
2023-08-24T01:43:13.206Z,85.90
2023-08-24T01:44:13.376Z,85.90
2023-08-24T01:45:13.505Z,86.20
2023-08-24T01:46:13.602Z,86.50
2023-08-24T01:47:14.740Z,86.70
2023-08-24T01:48:13.925Z,86.70
2023-08-24T01:49:12.862Z,86.80
2023-08-24T01:50:13.835Z,86.70
2023-08-24T01:51:13.736Z,86.80
2023-08-24T01:52:13.538Z,86.90
2023-08-24T01:53:13.472Z,86.80
2023-08-24T01:54:13.432Z,87.00
2023-08-24T01:55:13.342Z,86.90
2023-08-24T01:56:13.389Z,87.20
2023-08-24T01:57:13.432Z,87.70
2023-08-24T01:58:13.549Z,87.90
2023-08-24T01:59:13.400Z,87.90
2023-08-24T02:00:13.372Z,87.80
2023-08-24T02:01:28.336Z,87.80
2023-08-24T02:02:13.405Z,87.60
2023-08-24T02:03:13.738Z,87.70
2023-08-24T02:04:13.785Z,87.90
2023-08-24T02:05:13.723Z,88.00
2023-08-24T02:06:13.874Z,87.90
2023-08-24T02:07:18.899Z,87.80
2023-08-24T02:08:12.858Z,87.80
2023-08-24T02:09:13.901Z,87.70
2023-08-24T02:10:13.481Z,87.60
2023-08-24T02:11:14.152Z,87.40
2023-08-24T02:12:13.279Z,87.20
2023-08-24T02:13:13.151Z,87.00
2023-08-24T02:14:13.309Z,86.80
2023-08-24T02:15:13.260Z,86.80
2023-08-24T02:16:13.139Z,86.90
2023-08-24T02:17:13.112Z,87.10
2023-08-24T02:18:13.096Z,87.10
2023-08-24T02:19:13.141Z,87.20
2023-08-24T02:20:12.866Z,87.20
2023-08-24T02:21:13.899Z,87.20
2023-08-24T02:22:14.061Z,87.10
2023-08-24T02:23:13.360Z,87.20
2023-08-24T02:24:13.242Z,87.40
2023-08-24T02:25:13.125Z,87.50
2023-08-24T02:26:13.162Z,87.50
2023-08-24T02:27:13.163Z,87.40
2023-08-24T02:28:13.217Z,87.30
2023-08-24T02:29:13.189Z,87.20
2023-08-24T02:30:13.225Z,87.30
2023-08-24T02:31:14.419Z,87.30
2023-08-24T02:32:13.383Z,87.40
2023-08-24T02:33:13.485Z,87.50
2023-08-24T02:34:13.456Z,87.80
2023-08-24T02:35:13.764Z,88.00
2023-08-24T02:36:13.882Z,87.90
2023-08-24T02:37:12.762Z,87.80
2023-08-24T02:38:13.937Z,87.80
2023-08-24T02:39:12.817Z,87.90
2023-08-24T02:40:13.783Z,87.90
2023-08-24T02:41:13.711Z,88.10
2023-08-24T02:42:12.855Z,88.10
2023-08-24T02:43:14.755Z,88.10
2023-08-24T02:44:13.963Z,87.90
2023-08-24T02:45:12.959Z,87.70
2023-08-24T02:46:13.208Z,87.50
2023-08-24T02:47:13.160Z,87.20
2023-08-24T02:48:13.337Z,87.10
2023-08-24T02:49:13.537Z,87.20
2023-08-24T02:50:18.868Z,87.30
2023-08-24T02:51:44.540Z,87.60
2023-08-24T02:52:13.514Z,87.70
2023-08-24T02:53:13.538Z,87.70
2023-08-24T02:55:18.630Z,87.60
2023-08-24T02:56:13.769Z,87.60
2023-08-24T02:57:13.511Z,87.60
2023-08-24T02:58:13.694Z,87.60
2023-08-24T02:59:13.572Z,87.80
2023-08-24T03:00:13.789Z,88.00
2023-08-24T03:01:14.338Z,88.10
2023-08-24T03:02:13.559Z,87.90
2023-08-24T03:04:13.304Z,88.60
2023-08-24T03:05:13.452Z,88.70
2023-08-24T03:06:33.407Z,88.80
2023-08-24T03:07:13.322Z,88.80
2023-08-24T03:08:13.229Z,88.80
2023-08-24T03:09:13.071Z,88.70
2023-08-24T03:10:13.258Z,88.70
2023-08-24T03:11:13.201Z,88.80
2023-08-24T03:12:13.206Z,88.80
2023-08-24T03:13:13.398Z,88.90
2023-08-24T03:14:13.249Z,88.90
2023-08-24T03:15:13.297Z,89.00
2023-08-24T03:16:13.301Z,89.00
2023-08-24T03:17:13.783Z,89.00
2023-08-24T03:18:13.836Z,88.90
2023-08-24T03:19:13.776Z,88.80
2023-08-24T03:20:13.807Z,88.80
2023-08-24T03:21:14.120Z,88.90
2023-08-24T03:22:13.223Z,89.00
2023-08-24T03:23:13.269Z,89.10
2023-08-24T03:24:13.386Z,89.10
2023-08-24T03:25:13.154Z,89.00
2023-08-24T03:26:13.272Z,89.00
2023-08-24T03:27:13.379Z,88.90
2023-08-24T03:28:13.265Z,88.80
2023-08-24T03:29:13.162Z,88.60
2023-08-24T03:30:12.967Z,88.50
2023-08-24T03:31:12.863Z,88.40
2023-08-24T03:32:12.963Z,88.30
2023-08-24T03:33:13.127Z,88.20
2023-08-24T03:34:13.011Z,88.20
2023-08-24T03:35:12.806Z,88.20
2023-08-24T03:36:13.959Z,88.20
2023-08-24T03:37:18.096Z,88.20
2023-08-24T03:38:12.995Z,88.10
2023-08-24T03:39:12.922Z,88.00
2023-08-24T03:40:12.899Z,88.00
2023-08-24T03:41:12.993Z,88.10
2023-08-24T03:42:13.003Z,88.20
2023-08-24T03:43:12.956Z,88.20
2023-08-24T03:44:12.930Z,88.20
2023-08-24T03:45:12.885Z,88.20
2023-08-24T03:46:13.125Z,88.20
2023-08-24T03:47:13.197Z,88.30
2023-08-24T03:48:13.102Z,88.40
2023-08-24T03:49:13.334Z,88.50
2023-08-24T03:50:13.257Z,88.50
2023-08-24T03:51:13.376Z,88.50
2023-08-24T03:52:28.241Z,88.50
2023-08-24T03:53:23.249Z,88.50
2023-08-24T03:54:13.038Z,88.50
2023-08-24T03:56:23.568Z,88.40
2023-08-24T03:57:18.680Z,88.30
2023-08-24T03:58:13.765Z,88.20
2023-08-24T03:59:13.598Z,88.20
2023-08-24T04:00:13.510Z,88.20
2023-08-24T04:01:13.618Z,88.20
2023-08-24T04:02:13.770Z,88.20
2023-08-24T04:03:13.907Z,88.00
2023-08-24T04:04:13.069Z,87.80
2023-08-24T04:05:12.880Z,87.70
2023-08-24T04:06:12.817Z,87.60
2023-08-24T04:07:13.918Z,87.60
2023-08-24T04:08:12.892Z,87.50
2023-08-24T04:09:13.002Z,87.50
2023-08-24T04:10:12.896Z,87.40
2023-08-24T04:11:12.912Z,87.40
2023-08-24T04:12:12.968Z,87.30
2023-08-24T04:13:13.103Z,86.90
2023-08-24T04:14:12.949Z,86.70
2023-08-24T04:15:12.985Z,86.60
2023-08-24T04:16:13.305Z,86.50
2023-08-24T04:17:13.409Z,86.40
2023-08-24T04:18:13.610Z,86.40
2023-08-24T04:19:13.531Z,86.30
2023-08-24T04:20:13.509Z,86.20
2023-08-24T04:21:13.358Z,86.20
2023-08-24T04:22:13.447Z,86.20
2023-08-24T04:23:13.657Z,86.30
2023-08-24T04:24:13.733Z,86.50
2023-08-24T04:25:14.130Z,86.50
2023-08-24T04:26:13.203Z,86.60
2023-08-24T04:27:13.065Z,86.70
2023-08-24T04:28:13.188Z,86.70
2023-08-24T04:29:13.278Z,86.70
2023-08-24T04:30:13.562Z,86.70
2023-08-24T04:31:13.784Z,86.70
2023-08-24T04:32:13.885Z,86.80
2023-08-24T04:33:13.031Z,86.80
2023-08-24T04:34:13.151Z,86.80
2023-08-24T04:35:13.434Z,86.90
2023-08-24T04:36:13.395Z,86.90
2023-08-24T04:37:13.381Z,87.00
2023-08-24T04:38:14.049Z,87.10
2023-08-24T04:39:13.267Z,87.20
2023-08-24T04:40:13.257Z,87.30
2023-08-24T04:41:13.248Z,87.40
2023-08-24T04:42:13.337Z,87.50
2023-08-24T04:43:13.212Z,87.60
2023-08-24T04:44:13.440Z,87.60
2023-08-24T04:45:13.951Z,87.80
2023-08-24T04:46:12.946Z,87.80
2023-08-24T04:47:12.994Z,88.00
2023-08-24T04:48:13.121Z,88.20
2023-08-24T04:49:13.110Z,88.40
2023-08-24T04:50:13.229Z,88.60
2023-08-24T04:51:13.362Z,88.70
2023-08-24T04:52:13.338Z,89.00
2023-08-24T04:53:13.242Z,88.90
2023-08-24T04:54:13.249Z,88.90
2023-08-24T04:55:13.048Z,89.10
2023-08-24T04:56:12.908Z,89.20
2023-08-24T04:57:12.930Z,89.40
2023-08-24T04:58:12.838Z,89.50
2023-08-24T04:59:13.700Z,89.60
2023-08-24T05:00:13.785Z,89.60
2023-08-24T05:01:13.824Z,89.80
2023-08-24T05:02:13.895Z,90.00
2023-08-24T05:03:13.098Z,90.20
2023-08-24T05:04:13.229Z,90.40
2023-08-24T05:05:13.119Z,90.40
2023-08-24T05:06:12.973Z,90.40
2023-08-24T05:07:12.773Z,90.50
2023-08-24T05:08:13.853Z,90.50
2023-08-24T05:09:13.798Z,90.50
2023-08-24T05:10:14.027Z,90.50
2023-08-24T05:11:13.108Z,90.60
2023-08-24T05:12:13.377Z,90.60
2023-08-24T05:13:13.478Z,90.60
2023-08-24T05:14:13.513Z,90.70
2023-08-24T05:15:13.608Z,90.80
2023-08-24T05:16:13.953Z,90.80
2023-08-24T05:17:13.005Z,90.90
2023-08-24T05:18:13.294Z,90.90
2023-08-24T05:19:13.274Z,90.70
2023-08-24T05:20:13.462Z,90.80
2023-08-24T05:21:13.421Z,90.90
2023-08-24T05:22:13.210Z,90.80
2023-08-24T05:23:13.315Z,90.80
2023-08-24T05:24:13.233Z,90.80
2023-08-24T05:25:13.192Z,90.70
2023-08-24T05:26:13.054Z,90.60
2023-08-24T05:27:12.918Z,90.50
2023-08-24T05:28:12.880Z,90.40
2023-08-24T05:29:13.784Z,90.40
2023-08-24T05:30:13.667Z,90.20
2023-08-24T05:31:13.925Z,90.10
2023-08-24T05:32:12.862Z,89.90
2023-08-24T05:33:13.813Z,89.90
2023-08-24T05:34:13.803Z,89.90
2023-08-24T05:35:13.967Z,89.80
2023-08-24T05:36:12.897Z,89.80
2023-08-24T05:37:12.890Z,89.80
2023-08-24T05:38:12.794Z,89.80
2023-08-24T05:39:13.615Z,89.80
2023-08-24T05:40:13.663Z,89.80
2023-08-24T05:41:13.693Z,89.80
2023-08-24T05:42:14.007Z,89.80
2023-08-24T05:43:13.119Z,89.80
2023-08-24T05:44:13.029Z,89.80
2023-08-24T05:45:12.819Z,89.70
2023-08-24T05:46:13.864Z,89.60
2023-08-24T05:47:12.957Z,89.70
2023-08-24T05:48:13.146Z,89.80
2023-08-24T05:49:13.692Z,89.80
2023-08-24T05:50:13.394Z,89.70
2023-08-24T05:51:13.592Z,89.60
2023-08-24T05:52:13.663Z,89.60
2023-08-24T05:53:13.707Z,89.50
2023-08-24T05:54:13.778Z,89.30
2023-08-24T05:55:13.506Z,89.20
2023-08-24T05:56:13.362Z,89.20
2023-08-24T05:57:13.294Z,89.10
2023-08-24T05:58:13.478Z,89.20
2023-08-24T05:59:13.451Z,89.00
2023-08-24T06:00:13.332Z,88.60
2023-08-24T06:01:13.342Z,88.60
2023-08-24T06:02:13.559Z,88.70
2023-08-24T06:03:13.546Z,88.70
2023-08-24T06:04:13.659Z,88.80
2023-08-24T06:05:14.010Z,88.90
2023-08-24T06:06:13.106Z,89.10
2023-08-24T06:07:13.398Z,89.20
2023-08-24T06:08:13.364Z,88.70
2023-08-24T06:09:13.372Z,88.60
2023-08-24T06:10:13.437Z,88.90
2023-08-24T06:11:13.339Z,88.60
2023-08-24T06:12:13.198Z,88.10
2023-08-24T06:13:13.075Z,87.60
2023-08-24T06:14:13.101Z,86.50
2023-08-24T06:15:13.590Z,86.20
2023-08-24T06:16:14.235Z,85.60
2023-08-24T06:17:13.434Z,85.40
2023-08-24T06:18:13.174Z,84.80
2023-08-24T06:19:13.505Z,84.30
2023-08-24T06:20:13.392Z,83.50
2023-08-24T06:21:13.603Z,84.10
2023-08-24T06:22:13.716Z,82.20
2023-08-24T06:23:13.808Z,82.80
2023-08-24T06:24:13.645Z,82.10
2023-08-24T06:25:13.626Z,82.30
2023-08-24T06:26:13.762Z,82.40
2023-08-24T06:27:13.664Z,81.20
2023-08-24T06:28:13.549Z,82.00
2023-08-24T06:29:13.541Z,82.00
2023-08-24T06:30:18.497Z,81.30
2023-08-24T06:31:13.611Z,81.60
2023-08-24T06:32:14.029Z,80.80
2023-08-24T06:33:12.992Z,80.80
2023-08-24T06:34:12.984Z,80.80
2023-08-24T06:35:13.040Z,80.30
2023-08-24T06:36:12.976Z,79.90
2023-08-24T06:37:13.317Z,79.10
2023-08-24T06:38:13.454Z,79.40
2023-08-24T06:39:13.188Z,79.10
2023-08-24T06:40:13.102Z,79.00
2023-08-24T06:41:12.964Z,79.20
2023-08-24T06:42:12.970Z,79.00
2023-08-24T06:43:13.007Z,78.40
2023-08-24T06:44:12.957Z,78.20
2023-08-24T06:45:12.904Z,75.60
2023-08-24T06:46:12.963Z,76.40
2023-08-24T06:47:12.852Z,75.10
2023-08-24T06:48:12.958Z,75.10
2023-08-24T06:49:13.684Z,75.20
2023-08-24T06:50:14.534Z,73.30
2023-08-24T06:51:13.471Z,73.20
2023-08-24T06:52:13.489Z,73.70
2023-08-24T06:53:13.632Z,73.90
2023-08-24T06:54:13.904Z,72.50
2023-08-24T06:55:12.881Z,72.50
2023-08-24T06:56:13.936Z,72.70
2023-08-24T06:57:12.981Z,73.00
2023-08-24T06:58:12.837Z,72.40
2023-08-24T06:59:13.960Z,71.90
2023-08-24T07:00:12.897Z,72.10
2023-08-24T07:01:13.046Z,72.50
2023-08-24T07:02:13.260Z,73.30
2023-08-24T07:03:13.190Z,72.30
2023-08-24T07:04:13.354Z,72.00
2023-08-24T07:05:13.595Z,70.90
2023-08-24T07:06:13.458Z,70.90
2023-08-24T07:07:13.405Z,70.70
2023-08-24T07:08:13.509Z,69.30
2023-08-24T07:09:13.392Z,70.30
2023-08-24T07:10:13.257Z,70.50
2023-08-24T07:11:13.182Z,70.20
2023-08-24T07:12:13.052Z,70.60
2023-08-24T07:13:13.314Z,70.90
2023-08-24T07:14:13.414Z,70.50
2023-08-24T07:15:13.430Z,69.90
2023-08-24T07:16:13.362Z,69.90
2023-08-24T07:17:13.354Z,69.60
2023-08-24T07:18:14.877Z,69.90
2023-08-24T07:19:13.130Z,69.90
2023-08-24T07:20:13.362Z,70.00
2023-08-24T07:21:13.144Z,69.30
2023-08-24T07:22:12.973Z,69.70
2023-08-24T07:23:13.113Z,69.00
2023-08-24T07:24:13.199Z,69.20
2023-08-24T07:25:13.080Z,69.70
2023-08-24T07:26:13.213Z,70.00
2023-08-24T07:27:13.428Z,68.00
2023-08-24T07:28:13.492Z,67.20
2023-08-24T07:29:13.561Z,68.10
2023-08-24T07:30:26.293Z,68.30
2023-08-24T07:31:13.034Z,68.00
2023-08-24T07:32:13.227Z,67.90
2023-08-24T07:33:13.414Z,67.40
2023-08-24T07:34:13.367Z,68.30
2023-08-24T07:35:13.324Z,68.60
2023-08-24T07:36:13.196Z,68.50
2023-08-24T07:37:13.418Z,67.10
2023-08-24T07:38:13.231Z,66.90
2023-08-24T07:39:13.849Z,66.80
2023-08-24T07:40:13.182Z,66.50
2023-08-24T07:41:13.436Z,66.80
2023-08-24T07:42:13.406Z,67.40
2023-08-24T07:43:13.310Z,67.80
2023-08-24T07:44:13.471Z,68.10
2023-08-24T07:45:13.492Z,66.70
2023-08-24T07:46:13.391Z,67.30
2023-08-24T07:47:13.195Z,67.90
2023-08-24T07:48:13.426Z,68.50
2023-08-24T07:49:13.276Z,68.70
2023-08-24T07:50:13.228Z,68.70
2023-08-24T07:51:13.269Z,68.50
2023-08-24T07:52:13.316Z,67.40
2023-08-24T07:53:13.304Z,66.20
2023-08-24T07:54:13.352Z,67.70
2023-08-24T07:55:13.403Z,67.60
2023-08-24T07:56:13.297Z,66.90
2023-08-24T07:57:13.280Z,67.50
2023-08-24T07:58:13.250Z,68.30
2023-08-24T07:59:13.291Z,68.50
2023-08-24T08:00:13.277Z,66.20
2023-08-24T08:01:13.205Z,67.80
2023-08-24T08:02:13.311Z,67.60
2023-08-24T08:03:13.411Z,67.50
2023-08-24T08:04:19.226Z,67.30
2023-08-24T08:05:12.951Z,66.90
2023-08-24T08:06:12.848Z,67.70
2023-08-24T08:07:13.937Z,68.40
2023-08-24T08:08:13.196Z,69.10
2023-08-24T08:09:13.126Z,68.10
2023-08-24T08:10:13.371Z,68.50
2023-08-24T08:11:13.208Z,67.20
2023-08-24T08:12:13.050Z,65.40
2023-08-24T08:13:13.132Z,65.80
2023-08-24T08:14:13.243Z,67.00
2023-08-24T08:15:13.190Z,68.10
2023-08-24T08:16:13.208Z,67.30
2023-08-24T08:17:13.120Z,67.40
2023-08-24T08:18:12.997Z,66.60
2023-08-24T08:19:12.890Z,65.30
2023-08-24T08:20:12.962Z,65.90
2023-08-24T08:21:13.203Z,63.90
2023-08-24T08:22:18.125Z,64.60
2023-08-24T08:23:13.200Z,65.10
2023-08-24T08:24:17.819Z,64.10
2023-08-24T08:25:13.133Z,64.00
2023-08-24T08:26:13.161Z,63.40
2023-08-24T08:27:13.037Z,63.60
2023-08-24T08:28:12.984Z,64.00
2023-08-24T08:29:12.981Z,64.00
2023-08-24T08:30:12.989Z,64.00
2023-08-24T08:31:13.321Z,65.10
2023-08-24T08:32:13.544Z,63.50
2023-08-24T08:33:13.382Z,64.20
2023-08-24T08:34:13.570Z,65.10
2023-08-24T08:35:13.486Z,64.90
2023-08-24T08:36:13.793Z,64.40
2023-08-24T08:37:13.974Z,64.80
2023-08-24T08:38:12.839Z,64.60
2023-08-24T08:39:13.607Z,63.80
2023-08-24T08:40:13.768Z,63.40
2023-08-24T08:41:13.918Z,63.30
2023-08-24T08:42:13.379Z,63.20
2023-08-24T08:43:13.463Z,63.60
2023-08-24T08:44:13.331Z,61.70
2023-08-24T08:45:13.321Z,61.40
2023-08-24T08:46:13.947Z,61.70
2023-08-24T08:47:13.003Z,62.00
2023-08-24T08:48:13.055Z,59.50
2023-08-24T08:49:13.067Z,59.90
2023-08-24T08:50:12.883Z,60.10
2023-08-24T08:51:12.837Z,60.30
2023-08-24T08:52:13.758Z,61.00
2023-08-24T08:53:13.732Z,58.90
2023-08-24T08:54:13.865Z,60.20
2023-08-24T08:55:13.795Z,60.60
2023-08-24T08:56:14.007Z,58.90
2023-08-24T08:57:12.982Z,58.90
2023-08-24T08:58:13.076Z,59.90
2023-08-24T08:59:13.240Z,60.20
2023-08-24T09:00:13.353Z,59.10
2023-08-24T09:01:13.305Z,59.30
2023-08-24T09:02:13.439Z,59.50
2023-08-24T09:03:14.060Z,59.10
2023-08-24T09:04:13.261Z,58.40
2023-08-24T09:05:13.107Z,59.70
2023-08-24T09:06:13.024Z,58.70
2023-08-24T09:07:12.868Z,59.30
2023-08-24T09:08:13.907Z,58.80
2023-08-24T09:09:12.941Z,58.50
2023-08-24T09:10:12.814Z,57.70
2023-08-24T09:11:13.798Z,58.20
2023-08-24T09:12:13.638Z,58.20
2023-08-24T09:13:13.562Z,58.80
2023-08-24T09:14:13.617Z,59.40
2023-08-24T09:15:13.600Z,59.70
2023-08-24T09:16:13.688Z,59.30
2023-08-24T09:17:14.022Z,57.70
2023-08-24T09:18:13.157Z,57.50
2023-08-24T09:19:13.406Z,57.40
2023-08-24T09:20:13.568Z,56.40
2023-08-24T09:21:13.494Z,56.60
2023-08-24T09:22:13.431Z,57.20
2023-08-24T09:23:18.508Z,54.70
2023-08-24T09:24:13.976Z,54.30
2023-08-24T09:25:13.161Z,54.10
2023-08-24T09:26:13.171Z,52.00
2023-08-24T09:27:13.473Z,52.20
2023-08-24T09:28:13.608Z,53.00
2023-08-24T09:29:13.414Z,51.40
2023-08-24T09:30:13.505Z,48.30
2023-08-24T09:31:13.462Z,48.20
2023-08-24T09:32:13.513Z,48.80
2023-08-24T09:33:13.533Z,48.30
2023-08-24T09:34:13.443Z,48.90
2023-08-24T09:35:13.403Z,50.60
2023-08-24T09:36:13.538Z,50.20
2023-08-24T09:37:13.610Z,49.30
2023-08-24T09:38:13.651Z,46.40
2023-08-24T09:39:13.518Z,46.90
2023-08-24T09:40:13.559Z,48.50
2023-08-24T09:41:13.371Z,47.90
2023-08-24T09:42:13.436Z,49.20
2023-08-24T09:43:13.447Z,49.00
2023-08-24T09:44:13.595Z,49.00
2023-08-24T09:45:13.461Z,47.40
2023-08-24T09:46:13.418Z,46.60
2023-08-24T09:47:13.577Z,47.50
2023-08-24T09:48:13.698Z,47.80
2023-08-24T09:49:13.693Z,47.30
2023-08-24T09:50:18.688Z,46.60
2023-08-24T09:51:32.610Z,45.90
2023-08-24T09:52:13.746Z,45.30
2023-08-24T09:53:13.804Z,44.20
2023-08-24T09:54:13.841Z,44.70
2023-08-24T09:55:13.795Z,46.30
2023-08-24T09:56:13.673Z,48.40
2023-08-24T09:57:13.491Z,46.70
2023-08-24T09:58:13.507Z,47.80
2023-08-24T09:59:13.783Z,47.20
2023-08-24T10:00:14.308Z,45.30
2023-08-24T10:01:13.413Z,46.30
2023-08-24T10:02:13.600Z,49.10
2023-08-24T10:03:13.671Z,47.10
2023-08-24T10:04:13.947Z,47.90
2023-08-24T10:05:21.767Z,46.70
2023-08-24T10:06:13.198Z,46.80
2023-08-24T10:07:13.176Z,46.60
2023-08-24T10:08:13.236Z,46.50
2023-08-24T10:09:13.387Z,44.20
2023-08-24T10:10:13.286Z,45.30
2023-08-24T10:11:16.071Z,45.00
2023-08-24T10:12:13.267Z,45.00
2023-08-24T10:13:13.314Z,45.20
2023-08-24T10:14:13.325Z,46.60
2023-08-24T10:15:13.236Z,47.20
2023-08-24T10:16:13.324Z,45.50
2023-08-24T10:17:15.326Z,44.30
2023-08-24T10:18:13.547Z,44.40
2023-08-24T10:19:13.601Z,44.00
2023-08-24T10:20:13.822Z,44.20
2023-08-24T10:21:13.873Z,43.40
2023-08-24T10:22:13.979Z,42.20
2023-08-24T10:23:12.887Z,41.80
2023-08-24T10:24:12.792Z,41.70
2023-08-24T10:25:13.813Z,42.30
2023-08-24T10:26:13.697Z,40.90
2023-08-24T10:27:13.128Z,40.70
2023-08-24T10:28:13.330Z,40.10
2023-08-24T10:29:13.247Z,40.90
2023-08-24T10:30:49.486Z,41.30
2023-08-24T10:31:01.484Z,40.70
2023-08-24T10:31:13.657Z,40.90
2023-08-24T10:32:14.336Z,41.40
2023-08-24T10:33:13.366Z,40.60
2023-08-24T10:34:13.316Z,41.20
2023-08-24T10:35:15.388Z,41.60
2023-08-24T10:36:13.466Z,41.80
2023-08-24T10:37:13.367Z,42.20
2023-08-24T10:38:13.368Z,41.70
2023-08-24T10:39:13.683Z,43.70
2023-08-24T10:40:13.721Z,44.40
2023-08-24T10:41:15.348Z,44.20
2023-08-24T10:42:13.165Z,43.90
2023-08-24T10:43:13.266Z,43.00
2023-08-24T10:44:13.479Z,44.80
2023-08-24T10:45:13.506Z,44.60
2023-08-24T10:46:13.406Z,44.90
2023-08-24T10:47:13.293Z,43.80
2023-08-24T10:48:13.405Z,44.90
2023-08-24T10:49:13.409Z,43.70
2023-08-24T10:50:13.346Z,44.20
2023-08-24T10:51:13.165Z,44.70
2023-08-24T10:52:12.984Z,44.00
2023-08-24T10:53:12.926Z,43.40
2023-08-24T10:54:13.037Z,44.00
2023-08-24T10:55:13.172Z,42.80
2023-08-24T10:56:13.105Z,44.20
2023-08-24T10:57:12.817Z,45.20
2023-08-24T10:58:14.018Z,43.20
2023-08-24T10:59:14.313Z,43.20
2023-08-24T11:00:13.308Z,43.50
2023-08-24T11:01:13.264Z,43.40
2023-08-24T11:02:13.369Z,42.90
2023-08-24T11:03:13.214Z,42.10
2023-08-24T11:04:13.304Z,42.10
2023-08-24T11:05:13.408Z,43.10
2023-08-24T11:06:13.487Z,42.90
2023-08-24T11:07:14.488Z,43.80
2023-08-24T11:08:13.314Z,43.70
2023-08-24T11:09:13.145Z,43.70
2023-08-24T11:10:13.141Z,42.90
2023-08-24T11:11:13.327Z,43.10
2023-08-24T11:12:13.334Z,42.50
2023-08-24T11:13:13.296Z,42.60
2023-08-24T11:14:13.213Z,40.80
2023-08-24T11:15:13.297Z,42.40
2023-08-24T11:16:13.342Z,42.30
2023-08-24T11:17:13.248Z,43.20
2023-08-24T11:18:13.267Z,42.70
2023-08-24T11:19:13.402Z,41.50
2023-08-24T11:20:13.241Z,41.40
2023-08-24T11:21:13.342Z,40.30
2023-08-24T11:22:13.396Z,39.90
2023-08-24T11:23:13.277Z,40.30
2023-08-24T11:24:13.196Z,41.90
2023-08-24T11:25:13.277Z,42.40
2023-08-24T11:26:13.808Z,41.80
2023-08-24T11:27:13.701Z,43.20
2023-08-24T11:28:14.869Z,41.80
2023-08-24T11:29:13.750Z,41.40
2023-08-24T11:30:13.753Z,42.30
2023-08-24T11:31:14.021Z,41.30
2023-08-24T11:32:13.022Z,41.60
2023-08-24T11:33:12.886Z,41.20
2023-08-24T11:34:12.782Z,41.30
2023-08-24T11:35:13.931Z,42.10
2023-08-24T11:36:12.847Z,41.50
2023-08-24T11:37:13.599Z,41.80
2023-08-24T11:38:13.784Z,43.40
2023-08-24T11:39:13.793Z,43.00
2023-08-24T11:40:13.688Z,43.40
2023-08-24T11:41:13.667Z,43.00
2023-08-24T11:42:13.564Z,43.30
2023-08-24T11:43:13.758Z,43.10
2023-08-24T11:44:23.188Z,42.10
2023-08-24T11:45:13.540Z,43.00
2023-08-24T11:46:13.539Z,41.00
2023-08-24T11:47:13.407Z,42.20
2023-08-24T11:48:13.278Z,42.50
2023-08-24T11:49:13.483Z,42.10
2023-08-24T11:50:13.522Z,44.10
2023-08-24T11:51:13.650Z,44.50
2023-08-24T11:52:13.764Z,43.20
2023-08-24T11:53:13.857Z,46.50
2023-08-24T11:54:14.029Z,44.50
2023-08-24T11:55:13.145Z,44.30
2023-08-24T11:56:13.222Z,44.00
2023-08-24T11:57:13.334Z,44.80
2023-08-24T11:58:13.078Z,45.10
2023-08-24T11:59:12.884Z,45.10
2023-08-24T12:00:12.753Z,45.90
2023-08-24T12:01:13.878Z,46.30
2023-08-24T12:02:12.738Z,43.50
2023-08-24T12:03:13.934Z,45.70
2023-08-24T12:04:13.072Z,46.40
2023-08-24T12:05:12.961Z,47.30
2023-08-24T12:06:12.890Z,47.30
2023-08-24T12:07:13.067Z,49.20
2023-08-24T12:08:12.934Z,48.00
2023-08-24T12:09:12.865Z,47.90
2023-08-24T12:10:13.852Z,49.30
2023-08-24T12:11:13.974Z,45.90
2023-08-24T12:12:12.888Z,47.70
2023-08-24T12:13:13.270Z,46.60
2023-08-24T12:14:13.343Z,47.80
2023-08-24T12:15:13.347Z,48.70
2023-08-24T12:16:13.534Z,47.90
2023-08-24T12:17:13.579Z,47.60
2023-08-24T12:18:13.628Z,46.70
2023-08-24T12:19:14.019Z,47.30
2023-08-24T12:20:12.928Z,44.30
2023-08-24T12:21:12.942Z,45.20
2023-08-24T12:22:12.962Z,48.90
2023-08-24T12:23:12.935Z,45.70
2023-08-24T12:24:12.816Z,46.80
2023-08-24T12:25:13.976Z,45.10
2023-08-24T12:26:13.041Z,46.30
2023-08-24T12:27:13.144Z,46.80
2023-08-24T12:28:13.184Z,46.90
2023-08-24T12:29:13.103Z,46.50
2023-08-24T12:30:12.793Z,45.10
2023-08-24T12:31:13.927Z,44.80
2023-08-24T12:32:13.262Z,45.30
2023-08-24T12:33:13.580Z,45.20
2023-08-24T12:34:13.547Z,45.20
2023-08-24T12:35:13.448Z,46.10
2023-08-24T12:36:13.741Z,45.00
2023-08-24T12:37:13.856Z,45.70
2023-08-24T12:38:14.045Z,46.50
2023-08-24T12:39:13.671Z,45.30
2023-08-24T12:40:13.642Z,45.80
2023-08-24T12:41:13.527Z,46.10
2023-08-24T12:42:13.518Z,45.10
2023-08-24T12:43:13.531Z,45.60
2023-08-24T12:44:15.664Z,45.80
2023-08-24T12:45:13.124Z,44.70
2023-08-24T12:46:13.272Z,46.40
2023-08-24T12:47:13.426Z,45.70
2023-08-24T12:48:13.703Z,46.90
2023-08-24T12:49:13.668Z,46.00
2023-08-24T12:50:13.994Z,47.20
2023-08-24T12:51:12.891Z,46.50
2023-08-24T12:52:12.955Z,44.70
2023-08-24T12:53:13.079Z,46.50
2023-08-24T12:54:13.128Z,45.10
2023-08-24T12:55:13.071Z,46.80
2023-08-24T12:56:13.058Z,46.80
2023-08-24T12:57:12.927Z,46.50